createdAt,value
2024-03-10T00:00:26.185Z,35.11
2024-03-10T00:02:55.731Z,35.47
2024-03-10T00:05:23.236Z,35.11
2024-03-10T00:07:50.344Z,35.00
2024-03-10T00:10:17.148Z,35.34
2024-03-10T00:12:48.820Z,35.21
2024-03-10T00:15:20.770Z,35.25
2024-03-10T00:17:48.299Z,34.88
2024-03-10T00:20:15.323Z,35.26
2024-03-10T00:22:46.115Z,35.19
2024-03-10T00:25:14.712Z,35.04
2024-03-10T00:27:42.206Z,35.16
2024-03-10T00:30:10.685Z,34.78
2024-03-10T00:32:38.339Z,35.01
2024-03-10T00:35:09.989Z,34.97
2024-03-10T00:37:37.163Z,35.01
2024-03-10T00:40:06.506Z,34.89
2024-03-10T00:42:33.282Z,34.74
2024-03-10T00:44:59.868Z,34.67
2024-03-10T00:47:26.679Z,34.68
2024-03-10T00:49:53.301Z,34.79
2024-03-10T00:52:20.136Z,34.90
2024-03-10T00:54:46.793Z,35.06
2024-03-10T00:57:13.439Z,34.66
2024-03-10T00:59:40.008Z,34.86
2024-03-10T01:02:06.954Z,34.67
2024-03-10T01:04:34.406Z,34.62
2024-03-10T01:07:01.238Z,34.80
2024-03-10T01:09:30.446Z,34.74
2024-03-10T01:11:57.254Z,34.72
2024-03-10T01:14:24.067Z,34.92
2024-03-10T01:16:50.856Z,34.60
2024-03-10T01:19:17.428Z,34.57
2024-03-10T01:21:47.563Z,34.50
2024-03-10T01:24:14.723Z,34.61
2024-03-10T01:26:41.351Z,34.75
2024-03-10T01:29:09.671Z,34.61
2024-03-10T01:31:36.509Z,34.58
2024-03-10T01:34:03.430Z,34.34
2024-03-10T01:36:30.618Z,34.56
2024-03-10T01:38:57.557Z,34.54
2024-03-10T01:41:27.431Z,34.59
2024-03-10T01:43:54.673Z,34.45
2024-03-10T01:46:22.973Z,34.78
2024-03-10T01:48:50.608Z,34.39
2024-03-10T01:51:18.137Z,34.54
2024-03-10T01:53:46.660Z,34.62
2024-03-10T01:56:14.649Z,34.59
2024-03-10T01:58:46.492Z,34.70
2024-03-10T02:01:15.407Z,34.54
2024-03-10T02:03:44.332Z,34.63
2024-03-10T02:06:11.546Z,34.33
2024-03-10T02:08:39.280Z,34.44
2024-03-10T02:11:11.055Z,34.21
2024-03-10T02:13:38.996Z,34.62
2024-03-10T02:16:07.235Z,34.09
2024-03-10T02:18:34.502Z,34.18
2024-03-10T02:21:02.051Z,34.34
2024-03-10T02:23:42.512Z,34.50
2024-03-10T02:26:10.832Z,34.16
2024-03-10T02:28:48.241Z,34.47
2024-03-10T02:31:33.833Z,34.18
2024-03-10T02:34:18.941Z,34.12
2024-03-10T02:37:06.337Z,33.93
2024-03-10T02:39:51.833Z,34.26
2024-03-10T02:42:37.015Z,33.90
2024-03-10T02:45:22.587Z,34.36
2024-03-10T02:47:50.444Z,34.24
2024-03-10T02:50:17.179Z,34.38
2024-03-10T02:52:43.914Z,34.05
2024-03-10T02:55:13.150Z,34.25
2024-03-10T02:57:39.920Z,34.36
2024-03-10T03:00:13.678Z,34.39
2024-03-10T03:02:40.323Z,34.04
2024-03-10T03:05:08.813Z,34.23
2024-03-10T03:07:35.650Z,34.23
2024-03-10T03:10:02.316Z,34.26
2024-03-10T03:12:28.988Z,34.02
2024-03-10T03:14:55.585Z,33.99
2024-03-10T03:17:25.278Z,33.96
2024-03-10T03:19:52.140Z,34.31
2024-03-10T03:22:18.860Z,34.19
2024-03-10T03:24:45.502Z,34.02
2024-03-10T03:27:12.146Z,33.96
2024-03-10T03:29:39.045Z,34.25
2024-03-10T03:32:06.783Z,34.20
2024-03-10T03:34:34.670Z,34.12
2024-03-10T03:37:01.324Z,34.24
2024-03-10T03:39:28.022Z,34.37
2024-03-10T03:41:54.906Z,33.97
2024-03-10T03:44:21.769Z,34.04
2024-03-10T03:46:48.454Z,33.88
2024-03-10T03:49:15.128Z,34.32
2024-03-10T03:51:44.051Z,34.08
2024-03-10T03:54:10.865Z,33.84
2024-03-10T03:56:37.470Z,33.90
2024-03-10T03:59:05.091Z,33.85
2024-03-10T04:01:32.189Z,34.12
2024-03-10T04:03:58.889Z,33.80
2024-03-10T04:06:25.553Z,34.08
2024-03-10T04:08:58.230Z,33.83
2024-03-10T04:11:25.985Z,34.01
2024-03-10T04:13:52.642Z,34.15
2024-03-10T04:16:20.509Z,34.00
2024-03-10T04:18:47.276Z,34.15
2024-03-10T04:21:15.306Z,33.78
2024-03-10T04:23:42.178Z,33.93
2024-03-10T04:26:10.490Z,33.92
2024-03-10T04:28:37.700Z,33.85
2024-03-10T04:31:04.503Z,33.79
2024-03-10T04:33:31.151Z,33.90
2024-03-10T04:35:57.795Z,34.11
2024-03-10T04:38:25.018Z,34.22
2024-03-10T04:40:51.801Z,33.90
2024-03-10T04:43:21.391Z,34.06
2024-03-10T04:45:50.101Z,34.07
2024-03-10T04:48:17.315Z,34.02
2024-03-10T04:50:44.330Z,33.98
2024-03-10T04:53:11.499Z,34.00
2024-03-10T04:55:38.486Z,34.03
2024-03-10T04:58:05.036Z,34.07
2024-03-10T05:00:31.712Z,33.84
2024-03-10T05:02:58.712Z,33.74
2024-03-10T05:05:25.668Z,33.89
2024-03-10T05:07:52.920Z,33.89
2024-03-10T05:10:20.776Z,33.96
2024-03-10T05:12:47.548Z,33.86
2024-03-10T05:15:17.053Z,33.95
2024-03-10T05:17:44.277Z,34.20
2024-03-10T05:22:43.346Z,34.55
2024-03-10T05:25:12.339Z,34.26
2024-03-10T05:27:42.365Z,34.40
2024-03-10T05:32:28.608Z,34.82
2024-03-10T05:34:57.869Z,35.08
2024-03-10T05:37:24.592Z,35.32
2024-03-10T05:39:51.334Z,35.20
2024-03-10T05:42:18.238Z,35.46
2024-03-10T05:44:44.880Z,35.42
2024-03-10T05:47:12.534Z,35.16
2024-03-10T05:49:39.245Z,35.30
2024-03-10T05:52:06.236Z,35.26
2024-03-10T05:54:35.153Z,35.24
2024-03-10T05:57:01.814Z,35.05
2024-03-10T06:01:54.808Z,35.09
2024-03-10T06:04:21.461Z,35.02
2024-03-10T06:06:48.029Z,34.89
2024-03-10T06:09:16.160Z,35.09
2024-03-10T06:11:42.834Z,34.79
2024-03-10T06:14:09.675Z,34.77
2024-03-10T06:16:36.309Z,34.65
2024-03-10T06:19:02.945Z,34.75
2024-03-10T06:24:12.938Z,34.63
2024-03-10T06:26:40.145Z,34.73
2024-03-10T06:29:07.763Z,35.53
2024-03-10T06:31:34.422Z,35.57
2024-03-10T06:34:01.156Z,35.84
2024-03-10T06:36:28.422Z,36.65
2024-03-10T06:38:55.024Z,37.04
2024-03-10T06:41:21.734Z,37.56
2024-03-10T06:43:50.845Z,37.82
2024-03-10T06:46:17.640Z,38.23
2024-03-10T06:48:44.230Z,38.64
2024-03-10T06:51:11.937Z,38.36
2024-03-10T06:53:38.770Z,38.50
2024-03-10T06:56:06.959Z,38.46
2024-03-10T06:58:33.604Z,37.89
2024-03-10T07:01:03.813Z,37.35
2024-03-10T07:03:32.071Z,36.84
2024-03-10T07:06:01.598Z,36.72
2024-03-10T07:08:28.719Z,36.49
2024-03-10T07:10:55.391Z,36.48
2024-03-10T07:13:22.086Z,36.54
2024-03-10T07:15:48.953Z,36.26
2024-03-10T07:18:18.217Z,36.14
2024-03-10T07:20:46.612Z,35.93
2024-03-10T07:23:14.491Z,35.48
2024-03-10T07:25:41.400Z,35.21
2024-03-10T07:28:08.163Z,35.34
2024-03-10T07:30:35.420Z,35.26
2024-03-10T07:33:02.914Z,34.99
2024-03-10T07:35:29.732Z,34.93
2024-03-10T07:37:57.000Z,34.89
2024-03-10T07:40:25.089Z,34.70
2024-03-10T07:42:51.805Z,34.72
2024-03-10T07:45:19.192Z,34.88
2024-03-10T07:47:47.796Z,34.94
2024-03-10T07:50:15.907Z,34.77
2024-03-10T07:52:45.240Z,34.86
2024-03-10T07:55:12.166Z,34.60
2024-03-10T07:57:40.821Z,34.58
2024-03-10T08:00:12.269Z,34.73
2024-03-10T08:02:41.247Z,34.99
2024-03-10T08:05:12.150Z,35.52
2024-03-10T08:07:46.252Z,35.84
2024-03-10T08:10:15.435Z,35.88
2024-03-10T08:12:46.513Z,36.17
2024-03-10T08:15:14.734Z,35.89
2024-03-10T08:17:42.827Z,35.85
2024-03-10T08:20:15.249Z,36.14
2024-03-10T08:22:43.781Z,35.85
2024-03-10T08:25:10.876Z,36.05
2024-03-10T08:27:37.954Z,35.75
2024-03-10T08:30:06.060Z,35.94
2024-03-10T08:32:33.118Z,35.86
2024-03-10T08:34:59.808Z,35.83
2024-03-10T08:37:29.169Z,35.97
2024-03-10T08:39:56.013Z,35.95
2024-03-10T08:42:25.883Z,36.82
2024-03-10T08:44:52.604Z,36.75
2024-03-10T08:47:19.290Z,37.17
2024-03-10T08:49:46.052Z,37.15
2024-03-10T08:52:13.607Z,37.34
2024-03-10T08:54:40.362Z,37.19
2024-03-10T08:57:07.127Z,37.26
2024-03-10T08:59:34.066Z,37.07
2024-03-10T09:02:02.897Z,37.36
2024-03-10T09:04:29.680Z,37.05
2024-03-10T09:06:56.288Z,37.20
2024-03-10T09:09:23.601Z,37.20
2024-03-10T09:11:50.503Z,37.68
2024-03-10T09:14:19.674Z,37.28
2024-03-10T09:16:46.504Z,37.54
2024-03-10T09:19:13.247Z,37.09
2024-03-10T09:21:39.903Z,37.01
2024-03-10T09:24:06.795Z,36.82
2024-03-10T09:26:33.520Z,36.91
2024-03-10T09:29:02.288Z,36.73
2024-03-10T09:31:29.471Z,36.54
2024-03-10T09:33:58.380Z,36.25
2024-03-10T09:36:26.022Z,36.31
2024-03-10T09:38:53.426Z,36.42
2024-03-10T09:41:22.203Z,36.40
2024-03-10T09:43:55.337Z,36.25
2024-03-10T09:46:22.967Z,36.37
2024-03-10T09:48:50.664Z,35.94
2024-03-10T09:51:17.365Z,36.57
2024-03-10T09:53:45.618Z,36.40
2024-03-10T09:56:13.946Z,36.41
2024-03-10T09:58:51.742Z,36.38
2024-03-10T10:01:22.276Z,36.27
2024-03-10T10:03:54.381Z,36.06
2024-03-10T10:06:22.039Z,36.28
2024-03-10T10:08:55.935Z,36.13
2024-03-10T10:11:24.763Z,35.94
2024-03-10T10:14:18.176Z,36.11
2024-03-10T10:16:58.650Z,35.85
2024-03-10T10:19:31.341Z,36.30
2024-03-10T10:21:59.395Z,36.08
2024-03-10T10:24:26.328Z,35.91
2024-03-10T10:27:00.316Z,36.29
2024-03-10T10:29:29.033Z,35.85
2024-03-10T10:32:00.999Z,36.20
2024-03-10T10:34:28.131Z,36.89
2024-03-10T10:36:56.588Z,37.40
2024-03-10T10:39:31.308Z,37.33
2024-03-10T10:42:02.018Z,37.67
2024-03-10T10:44:29.718Z,37.58
2024-03-10T10:46:59.540Z,38.20
2024-03-10T10:49:27.079Z,38.09
2024-03-10T10:51:57.826Z,38.28
2024-03-10T10:54:26.106Z,38.41
2024-03-10T10:56:57.334Z,38.27
2024-03-10T10:59:28.502Z,38.55
2024-03-10T11:01:57.527Z,38.37
2024-03-10T11:04:27.923Z,38.56
2024-03-10T11:06:57.050Z,38.71
2024-03-10T11:09:31.841Z,38.80
2024-03-10T11:12:00.051Z,38.82
2024-03-10T11:14:27.996Z,38.59
2024-03-10T11:17:14.371Z,38.86
2024-03-10T11:19:41.658Z,39.06
2024-03-10T11:22:09.442Z,39.40
2024-03-10T11:24:36.650Z,39.93
2024-03-10T11:27:16.198Z,40.09
2024-03-10T11:29:43.280Z,40.68
2024-03-10T11:32:32.363Z,40.92
2024-03-10T11:35:21.418Z,41.29
2024-03-10T11:37:50.743Z,41.40
2024-03-10T11:40:17.958Z,41.53
2024-03-10T11:42:46.529Z,41.93
2024-03-10T11:45:13.521Z,41.99
2024-03-10T11:47:40.721Z,41.81
2024-03-10T11:50:08.121Z,42.07
2024-03-10T11:52:34.791Z,41.71
2024-03-10T11:55:07.802Z,41.75
2024-03-10T11:57:35.057Z,41.60
2024-03-10T12:00:02.347Z,41.15
2024-03-10T12:02:34.058Z,40.98
2024-03-10T12:05:06.776Z,40.58
2024-03-10T12:07:36.105Z,40.97
2024-03-10T12:10:09.787Z,41.25
2024-03-10T12:12:38.438Z,41.96
2024-03-10T12:15:18.925Z,41.58
2024-03-10T12:17:53.171Z,39.58
2024-03-10T12:20:21.975Z,37.91
2024-03-10T12:22:49.650Z,37.37
2024-03-10T12:25:19.691Z,36.88
2024-03-10T12:27:48.970Z,36.88
2024-03-10T12:30:17.924Z,36.72
2024-03-10T12:32:45.650Z,36.81
2024-03-10T12:35:12.625Z,36.89
2024-03-10T12:37:41.680Z,37.31
2024-03-10T12:40:09.658Z,37.43
2024-03-10T12:42:39.599Z,37.41
2024-03-10T12:45:09.425Z,37.04
2024-03-10T12:47:36.506Z,36.92
2024-03-10T12:50:08.729Z,37.02
2024-03-10T12:52:36.233Z,37.02
2024-03-10T12:55:04.302Z,37.50
2024-03-10T12:57:30.971Z,37.86
2024-03-10T12:59:57.563Z,38.35
2024-03-10T13:02:24.437Z,38.31
2024-03-10T13:04:51.119Z,38.75
2024-03-10T13:07:17.996Z,38.94
2024-03-10T13:09:44.600Z,39.22
2024-03-10T13:12:11.940Z,39.27
2024-03-10T13:14:38.781Z,39.89
2024-03-10T13:17:05.533Z,39.92
2024-03-10T13:19:34.136Z,40.03
2024-03-10T13:22:00.960Z,40.27
2024-03-10T13:24:27.609Z,40.13
2024-03-10T13:26:54.689Z,40.05
2024-03-10T13:29:21.490Z,40.20
2024-03-10T13:31:48.115Z,40.43
2024-03-10T13:34:14.839Z,40.24
2024-03-10T13:36:41.598Z,40.00
2024-03-10T13:39:11.394Z,39.73
2024-03-10T13:41:40.002Z,39.64
2024-03-10T13:44:06.761Z,39.47
2024-03-10T13:46:33.763Z,39.46
2024-03-10T13:49:00.772Z,39.46
2024-03-10T13:51:27.420Z,39.02
2024-03-10T13:53:54.079Z,38.86
2024-03-10T13:56:20.768Z,38.95
2024-03-10T13:58:47.480Z,38.90
2024-03-10T14:01:17.056Z,38.47
2024-03-10T14:03:44.206Z,38.19
2024-03-10T14:06:10.944Z,38.05
2024-03-10T14:08:38.301Z,37.84
2024-03-10T14:11:05.320Z,37.71
2024-03-10T14:13:31.916Z,37.66
2024-03-10T14:15:59.249Z,38.00
2024-03-10T14:18:25.989Z,38.12
2024-03-10T14:20:52.850Z,38.15
2024-03-10T14:23:21.456Z,37.99
2024-03-10T14:25:48.127Z,37.81
2024-03-10T14:28:16.294Z,37.29
2024-03-10T14:30:43.095Z,37.08
2024-03-10T14:33:09.941Z,36.90
2024-03-10T14:35:36.647Z,36.47
2024-03-10T14:38:05.541Z,36.39
2024-03-10T14:40:34.412Z,36.59
2024-03-10T14:43:01.243Z,36.55
2024-03-10T14:45:30.388Z,36.16
2024-03-10T14:47:57.234Z,36.09
2024-03-10T14:50:26.095Z,36.07
2024-03-10T14:52:55.591Z,36.04
2024-03-10T14:55:22.865Z,36.17
2024-03-10T14:57:50.187Z,35.87
2024-03-10T15:00:37.354Z,35.60
2024-03-10T15:03:12.152Z,36.17
2024-03-10T15:05:43.282Z,35.90
2024-03-10T15:08:12.531Z,36.11
2024-03-10T15:10:42.255Z,35.91
2024-03-10T15:13:10.247Z,36.07
2024-03-10T15:15:38.203Z,35.78
2024-03-10T15:18:06.825Z,35.83
2024-03-10T15:20:34.472Z,35.79
2024-03-10T15:23:02.614Z,35.62
2024-03-10T15:25:35.268Z,35.63
2024-03-10T15:28:02.412Z,35.72
2024-03-10T15:30:29.168Z,35.50
2024-03-10T15:32:55.858Z,35.51
2024-03-10T15:35:22.907Z,35.68
2024-03-10T15:37:49.931Z,35.65
2024-03-10T15:40:20.277Z,35.63
2024-03-10T15:42:48.176Z,35.66
2024-03-10T15:45:20.145Z,35.47
2024-03-10T15:47:49.896Z,35.57
2024-03-10T15:50:19.865Z,35.39
2024-03-10T15:52:48.904Z,35.37
2024-03-10T15:55:18.022Z,35.50
2024-03-10T15:57:47.216Z,35.73
2024-03-10T16:00:21.567Z,35.60
2024-03-10T16:02:53.552Z,35.61
2024-03-10T16:05:48.786Z,35.88
2024-03-10T16:08:19.263Z,35.80
2024-03-10T16:10:47.595Z,35.95
2024-03-10T16:13:37.502Z,35.88
2024-03-10T16:16:06.755Z,36.30
2024-03-10T16:18:38.371Z,36.33
2024-03-10T16:21:09.798Z,36.53
2024-03-10T16:23:36.606Z,36.57
2024-03-10T16:26:04.637Z,36.65
2024-03-10T16:28:31.266Z,36.30
2024-03-10T16:30:57.859Z,35.80
2024-03-10T16:33:24.565Z,35.46
2024-03-10T16:35:51.297Z,35.14
2024-03-10T16:38:17.990Z,34.72
2024-03-10T16:40:44.706Z,34.92
2024-03-10T16:43:11.306Z,34.67
2024-03-10T16:45:39.465Z,34.81
2024-03-10T16:48:06.813Z,34.75
2024-03-10T16:50:34.608Z,34.73
2024-03-10T16:53:07.184Z,34.66
2024-03-10T16:55:34.093Z,34.96
2024-03-10T16:58:07.981Z,34.88
2024-03-10T17:00:36.359Z,35.20
2024-03-10T17:03:05.797Z,35.15
2024-03-10T17:05:35.955Z,34.98
2024-03-10T17:08:05.427Z,36.18
2024-03-10T17:10:32.602Z,37.28
2024-03-10T17:13:02.084Z,37.94
2024-03-10T17:15:29.722Z,38.48
2024-03-10T17:17:56.647Z,38.35
2024-03-10T17:20:24.993Z,38.83
2024-03-10T17:22:52.345Z,38.93
2024-03-10T17:25:18.966Z,39.11
2024-03-10T17:27:45.703Z,39.05
2024-03-10T17:30:17.232Z,39.46
2024-03-10T17:32:51.663Z,39.59
2024-03-10T17:35:20.745Z,39.65
2024-03-10T17:37:47.405Z,39.88
2024-03-10T17:40:15.281Z,39.96
2024-03-10T17:42:42.561Z,39.89
2024-03-10T17:45:12.296Z,39.63
2024-03-10T17:47:39.665Z,39.89
2024-03-10T17:50:08.117Z,40.36
2024-03-10T17:52:35.134Z,41.05
2024-03-10T17:55:02.193Z,41.10
2024-03-10T17:57:29.129Z,41.19
2024-03-10T17:59:55.780Z,41.30
2024-03-10T18:02:23.665Z,41.37
2024-03-10T18:04:50.268Z,41.24
2024-03-10T18:07:17.460Z,41.23
2024-03-10T18:09:44.145Z,41.30
2024-03-10T18:12:11.754Z,41.35
2024-03-10T18:14:38.441Z,41.09
2024-03-10T18:17:06.728Z,41.15
2024-03-10T18:19:33.537Z,40.65
2024-03-10T18:22:00.422Z,40.75
2024-03-10T18:24:27.056Z,40.62
2024-03-10T18:26:53.722Z,40.39
2024-03-10T18:29:22.227Z,39.92
2024-03-10T18:31:50.591Z,39.38
2024-03-10T18:34:17.407Z,39.46
2024-03-10T18:36:44.229Z,39.32
2024-03-10T18:39:11.880Z,39.01
2024-03-10T18:41:38.826Z,38.80
2024-03-10T18:44:07.667Z,39.03
2024-03-10T18:49:05.763Z,38.81
2024-03-10T18:51:33.105Z,38.51
2024-03-10T18:53:59.870Z,38.53
2024-03-10T18:56:28.493Z,38.80
2024-03-10T18:58:56.805Z,38.39
2024-03-10T19:01:24.030Z,38.53
2024-03-10T19:03:51.511Z,38.43
2024-03-10T19:06:19.186Z,38.62
2024-03-10T19:08:46.154Z,38.91
2024-03-10T19:11:13.353Z,39.37
2024-03-10T19:13:41.422Z,39.35
2024-03-10T19:16:10.465Z,40.15
2024-03-10T19:18:38.098Z,40.52
2024-03-10T19:21:06.890Z,40.60
2024-03-10T19:23:33.866Z,40.73
2024-03-10T19:26:04.680Z,40.85
2024-03-10T19:28:32.278Z,41.42
2024-03-10T19:31:01.332Z,41.34
2024-03-10T19:33:28.412Z,41.47
2024-03-10T19:35:56.394Z,41.74
2024-03-10T19:38:23.487Z,41.12
2024-03-10T19:40:51.509Z,40.87
2024-03-10T19:45:36.851Z,40.88
2024-03-10T19:48:03.741Z,41.17
2024-03-10T19:50:30.416Z,41.31
2024-03-10T19:52:57.127Z,41.36
2024-03-10T19:55:23.887Z,41.63
2024-03-10T19:57:50.597Z,41.77
2024-03-10T20:00:18.204Z,42.08
2024-03-10T20:02:47.062Z,42.12
2024-03-10T20:05:15.401Z,41.73
2024-03-10T20:07:52.491Z,41.71
2024-03-10T20:10:21.355Z,41.69
2024-03-10T20:12:50.920Z,41.33
2024-03-10T20:15:18.797Z,41.26
2024-03-10T20:17:49.510Z,40.78
2024-03-10T20:20:23.586Z,40.45
2024-03-10T20:22:55.817Z,40.20
2024-03-10T20:25:26.626Z,39.53
2024-03-10T20:27:54.599Z,39.56
2024-03-10T20:30:21.203Z,39.46
2024-03-10T20:32:48.205Z,39.31
2024-03-10T20:35:15.955Z,38.99
2024-03-10T20:37:44.617Z,38.94
2024-03-10T20:40:16.154Z,38.79
2024-03-10T20:42:44.833Z,38.61
2024-03-10T20:45:11.648Z,38.45
2024-03-10T20:47:40.020Z,38.23
2024-03-10T20:50:08.441Z,38.83
2024-03-10T20:52:35.600Z,38.96
2024-03-10T20:55:03.141Z,39.41
2024-03-10T20:57:29.981Z,39.63
2024-03-10T20:59:57.290Z,39.97
2024-03-10T21:02:24.922Z,40.00
2024-03-10T21:04:52.134Z,39.42
2024-03-10T21:07:18.914Z,39.56
2024-03-10T21:09:45.800Z,39.31
2024-03-10T21:12:12.639Z,39.12
2024-03-10T21:14:39.385Z,38.70
2024-03-10T21:17:06.796Z,38.72
2024-03-10T21:19:34.221Z,38.69
2024-03-10T21:22:01.084Z,38.83
2024-03-10T21:24:27.843Z,38.53
2024-03-10T21:26:54.487Z,38.34
2024-03-10T21:29:23.016Z,38.42
2024-03-10T21:31:49.808Z,38.21
2024-03-10T21:34:16.502Z,38.14
2024-03-10T21:36:44.024Z,38.13
2024-03-10T21:39:12.144Z,38.03
2024-03-10T21:41:39.213Z,37.94
2024-03-10T21:44:07.122Z,37.78
2024-03-10T21:46:33.788Z,37.79
2024-03-10T21:49:01.663Z,37.60
2024-03-10T21:51:28.408Z,37.63
2024-03-10T21:53:55.053Z,37.53
2024-03-10T21:56:22.267Z,37.59
2024-03-10T21:58:48.822Z,37.60
2024-03-10T22:01:17.700Z,37.33
2024-03-10T22:03:44.708Z,37.49
2024-03-10T22:06:11.360Z,37.62
2024-03-10T22:08:38.086Z,37.52
2024-03-10T22:11:04.830Z,37.61
2024-03-10T22:13:31.526Z,37.27
2024-03-10T22:15:58.350Z,37.36
2024-03-10T22:18:27.674Z,37.28
2024-03-10T22:20:55.837Z,37.43
2024-03-10T22:23:22.553Z,37.43
2024-03-10T22:25:49.375Z,37.38
2024-03-10T22:28:15.921Z,37.11
2024-03-10T22:30:43.139Z,37.21
2024-03-10T22:33:09.791Z,37.09
2024-03-10T22:35:36.427Z,37.18
2024-03-10T22:38:03.236Z,37.36
2024-03-10T22:40:32.015Z,36.95
2024-03-10T22:43:01.285Z,37.03
2024-03-10T22:45:31.560Z,36.98
2024-03-10T22:48:01.256Z,37.19
2024-03-10T22:50:28.500Z,37.33
2024-03-10T22:52:55.972Z,37.10
2024-03-10T22:55:24.007Z,37.22
2024-03-10T22:57:50.867Z,36.96
2024-03-10T23:00:20.877Z,37.21
2024-03-10T23:02:48.392Z,36.84
2024-03-10T23:05:19.577Z,36.79
2024-03-10T23:07:46.519Z,37.04
2024-03-10T23:10:13.213Z,37.10
2024-03-10T23:12:41.055Z,36.86
2024-03-10T23:15:08.638Z,36.98
2024-03-10T23:17:36.360Z,36.93
2024-03-10T23:20:08.027Z,36.87
2024-03-10T23:22:35.068Z,36.92
2024-03-10T23:25:05.462Z,36.84
2024-03-10T23:27:33.513Z,36.64
2024-03-10T23:30:01.766Z,36.66
2024-03-10T23:32:31.632Z,36.80
2024-03-10T23:34:59.014Z,36.72
2024-03-10T23:37:27.472Z,36.99
2024-03-10T23:39:54.168Z,36.62
2024-03-10T23:42:23.426Z,36.79
2024-03-10T23:45:13.482Z,36.82
2024-03-10T23:47:41.461Z,36.69
2024-03-10T23:50:14.205Z,36.64
2024-03-10T23:52:43.513Z,36.70
2024-03-10T23:55:11.220Z,36.64
2024-03-10T23:57:39.080Z,36.54
